createdAt,value
2022-11-23T00:01:23.993Z,18.30
2022-11-23T00:03:57.306Z,14.00
2022-11-23T00:06:28.571Z,15.93
2022-11-23T00:08:57.838Z,14.98
2022-11-23T00:11:28.126Z,15.75
2022-11-23T00:13:57.602Z,18.67
2022-11-23T00:16:32.741Z,16.67
2022-11-23T00:19:03.798Z,15.85
2022-11-23T00:21:34.619Z,21.13
2022-11-23T00:24:04.119Z,18.13
2022-11-23T00:26:45.703Z,18.10
2022-11-23T00:29:14.942Z,19.60
2022-11-23T00:31:44.194Z,16.38
2022-11-23T00:34:13.191Z,21.48
2022-11-23T00:36:43.815Z,19.88
2022-11-23T00:39:15.523Z,18.85
2022-11-23T00:41:45.487Z,17.10
2022-11-23T00:44:15.234Z,24.27
2022-11-23T00:46:44.728Z,17.00
2022-11-23T00:49:16.212Z,18.67
2022-11-23T00:51:46.849Z,22.38
2022-11-23T00:54:16.382Z,20.52
2022-11-23T00:56:55.340Z,18.13
2022-11-23T00:59:24.971Z,18.27
2022-11-23T01:01:59.573Z,18.88
2022-11-23T01:04:32.625Z,23.77
2022-11-23T01:07:09.200Z,21.67
2022-11-23T01:09:38.475Z,18.75
2022-11-23T01:12:09.171Z,17.52
2022-11-23T01:14:39.081Z,17.98
2022-11-23T01:17:13.532Z,20.50
2022-11-23T01:19:51.149Z,19.33
2022-11-23T01:22:23.629Z,16.90
2022-11-23T01:24:53.406Z,14.82
2022-11-23T01:27:33.715Z,15.75
2022-11-23T01:30:06.438Z,13.20
2022-11-23T01:32:36.772Z,13.07
2022-11-23T01:35:07.225Z,14.63
2022-11-23T01:37:45.905Z,13.13
2022-11-23T01:40:18.273Z,10.30
2022-11-23T01:42:54.788Z,14.20
2022-11-23T01:45:35.560Z,18.92
2022-11-23T01:48:06.838Z,11.75
2022-11-23T01:50:40.801Z,11.60
2022-11-23T01:53:12.324Z,10.15
2022-11-23T01:58:19.650Z,10.80
2022-11-23T02:00:51.177Z,12.52
2022-11-23T02:03:28.629Z,6.67
2022-11-23T02:06:02.093Z,12.60
2022-11-23T02:08:34.671Z,9.57
2022-11-23T02:11:08.954Z,12.10
2022-11-23T02:13:39.647Z,9.45
2022-11-23T02:16:13.372Z,11.23
2022-11-23T02:21:13.999Z,16.45
2022-11-23T02:23:54.265Z,12.57
2022-11-23T02:26:27.223Z,9.05
2022-11-23T02:28:58.497Z,12.57
2022-11-23T02:31:28.029Z,12.82
2022-11-23T02:34:00.908Z,10.70
2022-11-23T02:36:40.983Z,15.05
2022-11-23T02:39:12.572Z,19.60
2022-11-23T02:41:44.874Z,8.65
2022-11-23T02:44:22.910Z,11.63
2022-11-23T02:46:53.353Z,14.85
2022-11-23T02:49:24.806Z,10.13
2022-11-23T02:51:54.223Z,8.75
2022-11-23T02:54:24.028Z,10.98
2022-11-23T02:56:58.523Z,10.98
2022-11-23T02:59:30.758Z,13.23
2022-11-23T03:02:00.546Z,14.10
2022-11-23T03:07:12.140Z,12.73
2022-11-23T03:09:47.139Z,11.50
2022-11-23T03:12:24.968Z,11.45
2022-11-23T03:14:55.621Z,14.13
2022-11-23T03:17:30.398Z,7.93
2022-11-23T03:20:00.517Z,12.38
2022-11-23T03:25:02.016Z,11.52
2022-11-23T03:27:33.740Z,11.52
2022-11-23T03:30:03.220Z,8.77
2022-11-23T03:32:36.078Z,10.73
2022-11-23T03:35:05.842Z,10.52
2022-11-23T03:37:44.283Z,11.73
2022-11-23T03:40:13.861Z,7.38
2022-11-23T03:43:04.561Z,9.52
2022-11-23T03:45:35.417Z,7.97
2022-11-23T03:48:05.211Z,12.35
2022-11-23T03:50:37.098Z,7.32
2022-11-23T03:53:07.453Z,9.93
2022-11-23T03:55:36.553Z,12.70
2022-11-23T03:58:15.402Z,10.02
2022-11-23T04:00:49.834Z,5.88
2022-11-23T04:03:19.379Z,5.18
2022-11-23T04:06:11.619Z,5.82
2022-11-23T04:08:55.218Z,7.10
2022-11-23T04:11:57.925Z,8.48
2022-11-23T04:14:34.906Z,10.57
2022-11-23T04:17:04.712Z,6.60
2022-11-23T04:19:34.940Z,7.20
2022-11-23T04:22:06.253Z,8.38
2022-11-23T04:24:43.362Z,6.10
2022-11-23T04:27:16.047Z,6.88
2022-11-23T04:29:48.425Z,8.85
2022-11-23T04:32:18.403Z,6.57
2022-11-23T04:34:49.049Z,8.35
2022-11-23T04:37:20.919Z,5.45
2022-11-23T04:39:50.525Z,7.35
2022-11-23T04:42:30.540Z,7.07
2022-11-23T04:45:05.001Z,10.85
2022-11-23T04:47:36.181Z,8.57
2022-11-23T04:50:10.635Z,11.13
2022-11-23T04:52:39.895Z,8.90
2022-11-23T04:55:19.196Z,8.80
2022-11-23T04:57:56.909Z,9.05
2022-11-23T05:00:32.188Z,10.18
2022-11-23T05:03:03.785Z,8.43
2022-11-23T05:05:35.439Z,9.15
2022-11-23T05:08:08.935Z,9.82
2022-11-23T05:10:55.567Z,9.27
2022-11-23T05:13:26.513Z,9.87
2022-11-23T05:15:57.893Z,8.45
2022-11-23T05:18:30.638Z,9.10
2022-11-23T05:21:01.089Z,12.55
2022-11-23T05:23:34.851Z,10.73
2022-11-23T05:26:07.255Z,11.30
2022-11-23T05:31:15.450Z,8.43
2022-11-23T05:33:53.448Z,8.70
2022-11-23T05:36:42.069Z,6.88
2022-11-23T05:39:14.787Z,18.50
2022-11-23T05:44:36.364Z,11.07
2022-11-23T05:47:09.339Z,10.70
2022-11-23T05:49:40.615Z,12.55
2022-11-23T05:52:15.879Z,10.75
2022-11-23T05:54:46.840Z,12.35
2022-11-23T05:57:20.345Z,15.75
2022-11-23T05:59:50.932Z,11.55
2022-11-23T06:02:26.014Z,12.10
2022-11-23T06:05:02.416Z,29.75
2022-11-23T06:07:44.557Z,9.70
2022-11-23T06:10:22.560Z,12.82
2022-11-23T06:12:52.711Z,14.68
2022-11-23T06:15:26.492Z,14.77
2022-11-23T06:18:02.949Z,13.07
2022-11-23T06:20:40.872Z,10.05
2022-11-23T06:23:18.676Z,12.05
2022-11-23T06:25:48.362Z,13.23
2022-11-23T06:28:28.075Z,7.95
2022-11-23T06:31:04.277Z,11.95
2022-11-23T06:33:44.113Z,10.25
2022-11-23T06:36:15.600Z,6.63
2022-11-23T06:38:49.809Z,7.03
2022-11-23T06:41:30.946Z,9.40
2022-11-23T06:44:07.407Z,8.05
2022-11-23T06:46:46.234Z,23.52
2022-11-23T06:49:23.929Z,11.43
2022-11-23T06:52:10.541Z,10.98
2022-11-23T06:54:43.261Z,8.93
2022-11-23T06:57:14.792Z,11.40
2022-11-23T06:59:48.779Z,10.27
2022-11-23T07:02:25.607Z,7.35
2022-11-23T07:05:02.666Z,18.42
2022-11-23T07:07:39.038Z,15.20
2022-11-23T07:10:18.208Z,14.25
2022-11-23T07:12:55.797Z,14.45
2022-11-23T07:15:29.691Z,8.20
2022-11-23T07:17:59.140Z,9.80
2022-11-23T07:20:32.410Z,13.63
2022-11-23T07:23:07.335Z,7.43
2022-11-23T07:25:39.306Z,9.60
2022-11-23T07:28:11.961Z,9.98
2022-11-23T07:30:41.147Z,9.77
2022-11-23T07:33:12.056Z,9.60
2022-11-23T07:35:47.629Z,9.95
2022-11-23T07:38:22.055Z,11.98
2022-11-23T07:40:54.537Z,7.60
2022-11-23T07:43:43.103Z,6.78
2022-11-23T07:46:12.666Z,4.72
2022-11-23T07:48:45.065Z,7.88
2022-11-23T07:51:21.701Z,8.48
2022-11-23T07:53:51.357Z,6.78
2022-11-23T07:56:25.528Z,8.93
2022-11-23T07:58:57.216Z,5.35
2022-11-23T08:01:29.594Z,6.07
2022-11-23T08:04:00.486Z,3.67
2022-11-23T08:06:32.066Z,10.95
2022-11-23T08:09:01.265Z,3.63
2022-11-23T08:11:30.552Z,4.72
2022-11-23T08:13:59.912Z,2.08
2022-11-23T08:16:30.269Z,5.88
2022-11-23T08:18:59.832Z,1.48
2022-11-23T08:21:36.478Z,3.38
2022-11-23T08:24:07.693Z,2.08
2022-11-23T08:26:37.576Z,1.65
2022-11-23T08:29:09.931Z,2.90
2022-11-23T08:31:44.400Z,3.72
2022-11-23T08:34:14.108Z,0.75
2022-11-23T08:36:44.545Z,3.80
2022-11-23T08:39:17.550Z,1.42
2022-11-23T08:41:47.167Z,1.48
2022-11-23T08:44:18.502Z,2.60
2022-11-23T08:46:51.899Z,2.00
2022-11-23T08:49:21.136Z,3.20
2022-11-23T08:51:56.959Z,2.25
2022-11-23T08:54:31.280Z,1.23
2022-11-23T08:59:49.175Z,2.50
2022-11-23T09:02:18.304Z,1.98
2022-11-23T09:04:48.518Z,0.77
2022-11-23T09:07:24.664Z,0.80
2022-11-23T09:09:57.155Z,1.67
2022-11-23T09:12:27.286Z,2.30
2022-11-23T09:14:56.617Z,1.25
2022-11-23T09:17:25.848Z,2.75
2022-11-23T09:19:55.172Z,1.42
2022-11-23T09:22:24.367Z,4.28
2022-11-23T09:24:53.766Z,1.48
2022-11-23T09:27:27.108Z,1.90
2022-11-23T09:29:57.156Z,1.88
2022-11-23T09:32:26.927Z,0.70
2022-11-23T09:34:56.929Z,0.73
2022-11-23T09:37:27.106Z,2.42
2022-11-23T09:39:56.531Z,2.25
2022-11-23T09:42:39.911Z,3.70
2022-11-23T09:45:24.341Z,2.72
2022-11-23T09:48:02.429Z,4.38
2022-11-23T09:50:35.703Z,2.80
2022-11-23T09:53:19.487Z,4.57
2022-11-23T09:55:55.563Z,6.88
2022-11-23T09:58:30.054Z,2.25
2022-11-23T10:01:03.233Z,3.88
2022-11-23T10:03:37.634Z,4.45
2022-11-23T10:06:09.793Z,5.03
2022-11-23T10:08:48.076Z,4.55
2022-11-23T10:11:33.127Z,8.13
2022-11-23T10:14:14.549Z,5.45
2022-11-23T10:16:56.111Z,1.80
2022-11-23T10:19:28.991Z,2.03
2022-11-23T10:22:07.157Z,3.83
2022-11-23T10:24:38.961Z,5.45
2022-11-23T10:27:13.234Z,7.38
2022-11-23T10:29:46.961Z,5.88
2022-11-23T10:32:22.852Z,6.07
2022-11-23T10:35:02.715Z,3.20
2022-11-23T10:37:32.394Z,4.72
2022-11-23T10:40:04.278Z,5.68
2022-11-23T10:45:05.277Z,4.25
2022-11-23T10:47:42.815Z,2.63
2022-11-23T10:50:21.953Z,2.78
2022-11-23T10:52:55.663Z,1.80
2022-11-23T10:55:38.456Z,4.65
2022-11-23T10:58:27.828Z,4.93
2022-11-23T11:01:03.370Z,6.80
2022-11-23T11:03:33.750Z,3.95
2022-11-23T11:06:11.430Z,5.68
2022-11-23T11:08:51.388Z,5.88
2022-11-23T11:11:26.659Z,5.38
2022-11-23T11:14:03.457Z,4.18
2022-11-23T11:16:37.171Z,5.55
2022-11-23T11:19:31.938Z,3.28
2022-11-23T11:22:01.701Z,4.32
2022-11-23T11:24:34.033Z,4.30
2022-11-23T11:27:08.502Z,2.83
2022-11-23T11:29:40.859Z,5.80
2022-11-23T11:32:14.053Z,6.30
2022-11-23T11:34:49.104Z,3.85
2022-11-23T11:37:46.885Z,4.70
2022-11-23T11:40:23.694Z,2.95
2022-11-23T11:42:59.138Z,3.60
2022-11-23T11:45:59.696Z,3.20
2022-11-23T11:48:39.023Z,6.45
2022-11-23T11:51:18.136Z,8.82
2022-11-23T11:54:07.930Z,3.15
2022-11-23T11:56:47.264Z,4.95
2022-11-23T11:59:24.319Z,5.03
2022-11-23T12:02:11.399Z,9.65
2022-11-23T12:05:05.775Z,8.90
2022-11-23T12:07:52.141Z,8.35
2022-11-23T12:10:29.296Z,10.35
2022-11-23T12:13:01.420Z,6.28
2022-11-23T12:15:53.094Z,7.50
2022-11-23T12:18:41.644Z,5.93
2022-11-23T12:21:19.938Z,13.27
2022-11-23T12:23:54.198Z,7.00
2022-11-23T12:26:28.825Z,7.15
2022-11-23T12:29:20.384Z,7.82
2022-11-23T12:32:03.308Z,4.82
2022-11-23T12:34:41.824Z,8.40
2022-11-23T12:37:24.528Z,8.35
2022-11-23T12:40:15.429Z,12.25
2022-11-23T12:42:48.430Z,7.60
2022-11-23T12:45:26.870Z,14.43
2022-11-23T12:48:06.458Z,9.05
2022-11-23T12:50:40.403Z,15.63
2022-11-23T12:53:28.949Z,14.38
2022-11-23T12:56:09.129Z,6.68
2022-11-23T12:58:39.516Z,8.05
2022-11-23T13:01:16.920Z,10.77
2022-11-23T13:04:09.099Z,9.52
2022-11-23T13:07:28.431Z,18.00
2022-11-23T13:10:12.549Z,7.85
2022-11-23T13:15:27.658Z,10.45
2022-11-23T13:17:59.254Z,10.73
2022-11-23T13:20:32.566Z,8.38
2022-11-23T13:23:01.899Z,10.93
2022-11-23T13:25:32.181Z,8.85
2022-11-23T13:28:05.983Z,10.65
2022-11-23T13:33:42.304Z,8.05
2022-11-23T13:36:20.056Z,10.43
2022-11-23T13:38:49.724Z,5.20
2022-11-23T13:41:53.220Z,13.48
2022-11-23T13:44:26.243Z,9.00
2022-11-23T13:47:24.153Z,10.07
2022-11-23T13:50:10.309Z,9.18
2022-11-23T13:52:58.626Z,8.48
2022-11-23T13:55:36.616Z,8.73
2022-11-23T13:58:26.849Z,8.73
2022-11-23T14:00:59.041Z,6.32
2022-11-23T14:04:00.611Z,6.97
2022-11-23T14:06:45.037Z,10.90
2022-11-23T14:09:43.376Z,9.55
2022-11-23T14:12:28.821Z,10.48
2022-11-23T14:15:11.681Z,7.03
2022-11-23T14:18:08.187Z,6.45
2022-11-23T14:20:49.423Z,10.93
2022-11-23T14:23:33.867Z,7.43
2022-11-23T14:26:24.251Z,8.32
2022-11-23T14:29:15.175Z,5.28
2022-11-23T14:31:55.762Z,10.63
2022-11-23T14:34:48.812Z,8.27
2022-11-23T14:37:29.471Z,7.20
2022-11-23T14:40:29.995Z,3.60
2022-11-23T14:43:46.698Z,6.75
2022-11-23T14:46:21.001Z,7.15
2022-11-23T14:48:56.250Z,6.40
2022-11-23T14:51:31.849Z,9.65
2022-11-23T14:54:02.839Z,6.93
2022-11-23T14:56:42.839Z,4.83
2022-11-23T14:59:22.472Z,12.38
2022-11-23T15:04:46.814Z,11.52
2022-11-23T15:07:20.306Z,11.35
2022-11-23T15:09:52.947Z,14.25
2022-11-23T15:12:30.371Z,7.40
2022-11-23T15:15:00.328Z,10.80
2022-11-23T15:17:33.942Z,7.07
2022-11-23T15:20:05.857Z,4.75
2022-11-23T15:25:09.350Z,7.43
2022-11-23T15:27:43.244Z,8.70
2022-11-23T15:30:18.338Z,9.68
2022-11-23T15:33:00.303Z,10.75
2022-11-23T15:35:38.870Z,8.93
2022-11-23T15:38:23.263Z,7.72
2022-11-23T15:41:09.403Z,5.75
2022-11-23T15:44:02.468Z,10.10
2022-11-23T15:46:39.510Z,6.75
2022-11-23T15:52:33.184Z,6.07
2022-11-23T15:55:10.210Z,6.47
2022-11-23T15:57:48.012Z,9.25
2022-11-23T16:00:32.433Z,4.80
2022-11-23T16:03:21.186Z,6.78
2022-11-23T16:06:15.163Z,11.88
2022-11-23T16:08:55.242Z,7.05
2022-11-23T16:11:40.642Z,6.93
2022-11-23T16:14:30.519Z,9.35
2022-11-23T16:17:25.546Z,8.02
2022-11-23T16:20:03.340Z,12.02
2022-11-23T16:22:37.126Z,8.68
2022-11-23T16:25:20.758Z,11.38
2022-11-23T16:28:01.814Z,13.10
2022-11-23T16:30:41.741Z,12.95
2022-11-23T16:33:15.682Z,8.50
2022-11-23T16:35:46.511Z,10.18
2022-11-23T16:38:18.962Z,12.27
2022-11-23T16:40:51.264Z,13.88
2022-11-23T16:43:21.113Z,18.50
2022-11-23T16:45:53.787Z,10.00
2022-11-23T16:48:47.525Z,9.15
2022-11-23T16:51:31.893Z,9.55
2022-11-23T16:54:13.586Z,11.38
2022-11-23T16:56:50.185Z,14.88
2022-11-23T16:59:23.866Z,11.75
2022-11-23T17:01:59.663Z,14.80
2022-11-23T17:04:35.211Z,10.02
2022-11-23T17:07:06.224Z,12.10
2022-11-23T17:09:36.468Z,10.73
2022-11-23T17:12:16.682Z,13.93
2022-11-23T17:14:48.232Z,15.30
2022-11-23T17:17:21.608Z,6.82
2022-11-23T17:20:02.471Z,11.73
2022-11-23T17:22:34.549Z,9.85
2022-11-23T17:25:04.457Z,8.00
2022-11-23T17:27:36.131Z,9.25
2022-11-23T17:30:09.217Z,10.07
2022-11-23T17:32:44.897Z,15.55
2022-11-23T17:35:15.700Z,11.27
2022-11-23T17:37:46.473Z,23.25
2022-11-23T17:40:18.151Z,9.57
2022-11-23T17:42:47.778Z,7.55
2022-11-23T17:45:21.574Z,20.75
2022-11-23T17:48:03.706Z,10.68
2022-11-23T17:50:36.078Z,17.65
2022-11-23T17:53:09.425Z,14.20
2022-11-23T17:55:42.230Z,12.95
2022-11-23T17:58:13.003Z,21.15
2022-11-23T18:00:44.576Z,15.57
2022-11-23T18:03:14.211Z,20.35
2022-11-23T18:05:48.196Z,15.27
2022-11-23T18:08:23.813Z,12.32
2022-11-23T18:10:59.066Z,13.00
2022-11-23T18:13:29.619Z,13.02
2022-11-23T18:15:59.135Z,12.80
2022-11-23T18:18:28.569Z,12.35
2022-11-23T18:21:05.578Z,12.55
2022-11-23T18:23:40.353Z,16.98
2022-11-23T18:26:16.905Z,12.18
2022-11-23T18:28:48.533Z,9.15
2022-11-23T18:31:19.263Z,19.33
2022-11-23T18:33:50.915Z,14.23
2022-11-23T18:36:24.623Z,16.90
2022-11-23T18:38:54.925Z,12.00
2022-11-23T18:41:25.281Z,14.30
2022-11-23T18:43:55.153Z,31.60
2022-11-23T18:46:25.817Z,11.73
2022-11-23T18:48:57.849Z,17.98
2022-11-23T18:51:30.608Z,16.33
2022-11-23T18:54:00.699Z,12.90
2022-11-23T18:56:35.916Z,19.92
2022-11-23T18:59:15.590Z,23.27
2022-11-23T19:02:03.503Z,22.92
2022-11-23T19:04:34.370Z,20.65
2022-11-23T19:07:06.254Z,19.20
2022-11-23T19:09:38.891Z,23.25
2022-11-23T19:12:10.172Z,19.55
2022-11-23T19:14:40.138Z,16.05
2022-11-23T19:17:10.702Z,15.23
2022-11-23T19:19:43.863Z,14.18
2022-11-23T19:22:19.889Z,10.77
2022-11-23T19:24:51.240Z,14.77
2022-11-23T19:27:21.094Z,16.48
2022-11-23T19:30:00.751Z,15.98
2022-11-23T19:32:35.721Z,9.48
2022-11-23T19:35:06.596Z,21.85
2022-11-23T19:37:39.015Z,14.68
2022-11-23T19:40:12.865Z,14.93
2022-11-23T19:42:47.588Z,12.52
2022-11-23T19:45:17.690Z,15.77
2022-11-23T19:47:51.009Z,11.43
2022-11-23T19:50:26.002Z,9.50
2022-11-23T19:53:11.811Z,8.60
2022-11-23T19:55:43.244Z,18.90
2022-11-23T19:58:22.406Z,11.85
2022-11-23T20:00:52.318Z,5.13
2022-11-23T20:03:24.976Z,9.65
2022-11-23T20:06:01.843Z,12.20
2022-11-23T20:08:33.732Z,9.00
2022-11-23T20:11:09.242Z,9.95
2022-11-23T20:13:41.411Z,9.18
2022-11-23T20:18:40.435Z,11.73
2022-11-23T20:21:13.012Z,10.27
2022-11-23T20:23:45.781Z,11.55
2022-11-23T20:26:19.294Z,18.63
2022-11-23T20:28:52.125Z,19.20
2022-11-23T20:31:23.343Z,7.03
2022-11-23T20:33:53.917Z,13.32
2022-11-23T20:36:23.570Z,9.65
2022-11-23T20:38:55.173Z,12.60
2022-11-23T20:43:59.571Z,10.88
2022-11-23T20:49:18.995Z,11.80
2022-11-23T20:51:48.132Z,17.05
2022-11-23T20:54:18.510Z,15.18
2022-11-23T20:56:49.809Z,16.77
2022-11-23T20:59:31.408Z,14.30
2022-11-23T21:02:01.091Z,11.88
2022-11-23T21:04:31.577Z,15.93
2022-11-23T21:07:00.988Z,12.93
2022-11-23T21:09:59.037Z,21.23
2022-11-23T21:12:51.944Z,16.45
2022-11-23T21:15:22.058Z,15.45
2022-11-23T21:17:51.457Z,14.90
2022-11-23T21:20:21.160Z,21.70
2022-11-23T21:22:51.165Z,17.50
2022-11-23T21:25:20.686Z,14.98
2022-11-23T21:27:52.788Z,11.27
2022-11-23T21:30:23.496Z,16.40
2022-11-23T21:32:58.159Z,14.70
2022-11-23T21:35:37.598Z,13.57
2022-11-23T21:38:12.075Z,10.43
2022-11-23T21:40:41.656Z,15.20
2022-11-23T21:43:13.987Z,14.80
2022-11-23T21:45:43.844Z,19.25
2022-11-23T21:48:13.017Z,13.98
2022-11-23T21:50:53.719Z,15.15
2022-11-23T21:53:26.003Z,13.48
2022-11-23T21:55:55.980Z,13.38
2022-11-23T21:58:27.223Z,11.07
2022-11-23T22:00:58.883Z,13.77
2022-11-23T22:03:32.405Z,10.27
2022-11-23T22:06:07.443Z,24.00
2022-11-23T22:08:44.334Z,11.00
2022-11-23T22:11:14.508Z,8.85
2022-11-23T22:13:54.486Z,14.52
2022-11-23T22:16:29.796Z,15.38
2022-11-23T22:19:37.628Z,15.52
2022-11-23T22:33:13.737Z,9.75
2022-11-23T22:35:43.088Z,11.47
2022-11-23T22:38:14.515Z,11.93
2022-11-23T22:40:49.207Z,10.43
2022-11-23T22:43:18.524Z,13.85
2022-11-23T22:45:47.624Z,10.80
2022-11-23T22:48:18.054Z,13.23
2022-11-23T22:50:56.451Z,18.33
2022-11-23T22:53:25.746Z,18.90
2022-11-23T22:55:55.181Z,12.23
2022-11-23T22:58:24.285Z,15.15
2022-11-23T23:00:53.328Z,16.60
2022-11-23T23:03:23.927Z,12.18
2022-11-23T23:05:56.376Z,11.23
2022-11-23T23:08:25.814Z,10.60
2022-11-23T23:10:55.321Z,12.75
2022-11-23T23:13:24.947Z,14.77
2022-11-23T23:16:01.854Z,14.38
2022-11-23T23:18:33.295Z,14.52
2022-11-23T23:21:03.408Z,12.70
2022-11-23T23:23:32.470Z,16.23
2022-11-23T23:26:01.664Z,9.98
2022-11-23T23:28:30.778Z,13.48
2022-11-23T23:31:01.576Z,9.10
2022-11-23T23:33:33.304Z,7.22
2022-11-23T23:36:05.263Z,10.13
2022-11-23T23:38:34.646Z,8.68
2022-11-23T23:41:03.842Z,4.25
2022-11-23T23:43:32.924Z,11.23
2022-11-23T23:46:02.646Z,6.68
2022-11-23T23:48:33.683Z,5.53
2022-11-23T23:51:06.558Z,4.00
2022-11-23T23:53:35.941Z,1.05
2022-11-23T23:56:06.188Z,5.72
2022-11-23T23:58:35.526Z,3.20
